sensor_id;sensor_type;location;lat;lon;timestamp;pressure;altitude;pressure_sealevel;temperature;humidity
58769;BME280;44536;47.474;19.056;2023-02-15T00:00:48;102225.56;;;-0.48;100.00
58769;BME280;44536;47.474;19.056;2023-02-15T00:03:50;102218.66;;;-0.56;100.00
58769;BME280;44536;47.474;19.056;2023-02-15T00:06:52;102223.00;;;-0.52;100.00
58769;BME280;44536;47.474;19.056;2023-02-15T00:09:55;102227.28;;;-0.51;100.00
58769;BME280;44536;47.474;19.056;2023-02-15T00:12:59;102223.00;;;-0.54;100.00
58769;BME280;44536;47.474;19.056;2023-02-15T00:16:03;102223.84;;;-0.67;100.00
58769;BME280;44536;47.474;19.056;2023-02-15T00:19:06;102225.59;;;-0.64;100.00
58769;BME280;44536;47.474;19.056;2023-02-15T00:22:09;102228.19;;;-0.63;100.00
58769;BME280;44536;47.474;19.056;2023-02-15T00:25:11;102228.19;;;-0.52;100.00
58769;BME280;44536;47.474;19.056;2023-02-15T00:28:14;102229.94;;;-0.62;100.00
58769;BME280;44536;47.474;19.056;2023-02-15T00:31:16;102227.31;;;-0.68;100.00
58769;BME280;44536;47.474;19.056;2023-02-15T00:34:22;102229.06;;;-0.67;100.00
58769;BME280;44536;47.474;19.056;2023-02-15T00:37:24;102229.94;;;-0.70;100.00
58769;BME280;44536;47.474;19.056;2023-02-15T00:40:26;102215.16;;;-0.68;100.00
58769;BME280;44536;47.474;19.056;2023-02-15T00:43:30;102229.94;;;-0.62;100.00
58769;BME280;44536;47.474;19.056;2023-02-15T00:46:33;102229.06;;;-0.73;100.00
58769;BME280;44536;47.474;19.056;2023-02-15T00:49:35;102222.97;;;-0.71;100.00
58769;BME280;44536;47.474;19.056;2023-02-15T00:52:38;102227.31;;;-0.71;100.00
58769;BME280;44536;47.474;19.056;2023-02-15T00:55:40;102213.41;;;-0.87;100.00
58769;BME280;44536;47.474;19.056;2023-02-15T00:58:43;102222.97;;;-0.86;100.00
58769;BME280;44536;47.474;19.056;2023-02-15T01:01:45;102222.09;;;-0.82;100.00
58769;BME280;44536;47.474;19.056;2023-02-15T01:04:48;102220.37;;;-0.89;100.00
58769;BME280;44536;47.474;19.056;2023-02-15T01:07:50;102223.84;;;-0.81;100.00
58769;BME280;44536;47.474;19.056;2023-02-15T01:10:56;102222.12;;;-0.79;100.00
58769;BME280;44536;47.474;19.056;2023-02-15T01:13:58;102223.84;;;-0.88;100.00
58769;BME280;44536;47.474;19.056;2023-02-15T01:17:01;102216.87;;;-0.91;100.00
58769;BME280;44536;47.474;19.056;2023-02-15T01:20:04;102221.22;;;-0.97;100.00
58769;BME280;44536;47.474;19.056;2023-02-15T01:23:08;102222.09;;;-1.11;100.00
58769;BME280;44536;47.474;19.056;2023-02-15T01:26:11;102222.97;;;-1.09;100.00
58769;BME280;44536;47.474;19.056;2023-02-15T01:29:13;102216.87;;;-1.15;100.00
58769;BME280;44536;47.474;19.056;2023-02-15T01:32:16;102208.19;;;-1.16;100.00
58769;BME280;44536;47.474;19.056;2023-02-15T01:35:18;102214.28;;;-1.17;100.00
58769;BME280;44536;47.474;19.056;2023-02-15T01:38:21;102211.66;;;-1.21;100.00
58769;BME280;44536;47.474;19.056;2023-02-15T01:41:23;102208.19;;;-1.23;100.00
58769;BME280;44536;47.474;19.056;2023-02-15T01:44:53;102204.72;;;-1.19;100.00
58769;BME280;44536;47.474;19.056;2023-02-15T01:48:13;102197.78;;;-1.16;100.00
58769;BME280;44536;47.474;19.056;2023-02-15T01:51:21;102193.44;;;-1.18;100.00
58769;BME280;44536;47.474;19.056;2023-02-15T01:54:31;102191.72;;;-1.18;100.00
58769;BME280;44536;47.474;19.056;2023-02-15T01:57:34;102192.53;;;-1.33;100.00
58769;BME280;44536;47.474;19.056;2023-02-15T02:00:38;102192.53;;;-1.42;100.00
58769;BME280;44536;47.474;19.056;2023-02-15T02:03:53;102192.50;;;-1.48;100.00
58769;BME280;44536;47.474;19.056;2023-02-15T02:06:58;102186.47;;;-1.41;100.00
58769;BME280;44536;47.474;19.056;2023-02-15T02:10:02;102183.88;;;-1.38;100.00
58769;BME280;44536;47.474;19.056;2023-02-15T02:13:07;102196.00;;;-1.37;100.00
58769;BME280;44536;47.474;19.056;2023-02-15T02:33:01;102195.09;;;-1.48;100.00
58769;BME280;44536;47.474;19.056;2023-02-15T02:36:16;102189.91;;;-1.46;100.00
58769;BME280;44536;47.474;19.056;2023-02-15T02:42:56;102191.62;;;-1.53;100.00
58769;BME280;44536;47.474;19.056;2023-02-15T02:46:22;102191.62;;;-1.62;100.00
58769;BME280;44536;47.474;19.056;2023-02-15T02:49:38;102191.62;;;-1.59;100.00
58769;BME280;44536;47.474;19.056;2023-02-15T02:52:42;102190.75;;;-1.59;100.00
58769;BME280;44536;47.474;19.056;2023-02-15T02:55:54;102191.62;;;-1.59;100.00
58769;BME280;44536;47.474;19.056;2023-02-15T02:59:23;102203.78;;;-1.59;100.00
58769;BME280;44536;47.474;19.056;2023-02-15T03:02:32;102201.16;;;-1.59;100.00
58769;BME280;44536;47.474;19.056;2023-02-15T03:05:41;102195.94;;;-1.55;100.00
58769;BME280;44536;47.474;19.056;2023-02-15T03:08:52;102194.25;;;-1.59;100.00
58769;BME280;44536;47.474;19.056;2023-02-15T03:11:56;102191.62;;;-1.60;100.00
58769;BME280;44536;47.474;19.056;2023-02-15T03:15:13;102196.81;;;-1.65;100.00
58769;BME280;44536;47.474;19.056;2023-02-15T03:18:21;102201.12;;;-1.70;100.00
58769;BME280;44536;47.474;19.056;2023-02-15T03:21:34;102198.56;;;-1.62;100.00
58769;BME280;44536;47.474;19.056;2023-02-15T03:25:20;102197.69;;;-1.54;100.00
58769;BME280;44536;47.474;19.056;2023-02-15T03:28:29;102197.69;;;-1.54;100.00
58769;BME280;44536;47.474;19.056;2023-02-15T03:31:36;102194.22;;;-1.56;100.00
58769;BME280;44536;47.474;19.056;2023-02-15T03:34:40;102196.84;;;-1.57;100.00
58769;BME280;44536;47.474;19.056;2023-02-15T03:37:47;102198.56;;;-1.58;100.00
58769;BME280;44536;47.474;19.056;2023-02-15T03:40:53;102202.03;;;-1.59;100.00
58769;BME280;44536;47.474;19.056;2023-02-15T03:44:23;102208.09;;;-1.55;100.00
58769;BME280;44536;47.474;19.056;2023-02-15T03:47:32;102207.31;;;-1.27;100.00
58769;BME280;44536;47.474;19.056;2023-02-15T03:50:37;102203.84;;;-1.21;100.00
58769;BME280;44536;47.474;19.056;2023-02-15T03:54:08;102209.94;;;-1.10;100.00
58769;BME280;44536;47.474;19.056;2023-02-15T03:57:26;102202.13;;;-1.03;100.00
58769;BME280;44536;47.474;19.056;2023-02-15T04:00:55;102206.47;;;-0.95;100.00
58769;BME280;44536;47.474;19.056;2023-02-15T04:04:21;102201.25;;;-1.03;100.00
58769;BME280;44536;47.474;19.056;2023-02-15T04:07:26;102201.25;;;-1.02;100.00
58769;BME280;44536;47.474;19.056;2023-02-15T04:10:29;102206.47;;;-1.08;100.00
58769;BME280;44536;47.474;19.056;2023-02-15T04:13:49;102203.00;;;-1.08;100.00
58769;BME280;44536;47.474;19.056;2023-02-15T04:16:58;102208.22;;;-1.10;100.00
58769;BME280;44536;47.474;19.056;2023-02-15T04:20:01;102210.81;;;-1.10;100.00
58769;BME280;44536;47.474;19.056;2023-02-15T04:23:22;102203.88;;;-1.11;100.00
58769;BME280;44536;47.474;19.056;2023-02-15T04:26:43;102202.13;;;-1.12;100.00
58769;BME280;44536;47.474;19.056;2023-02-15T04:29:45;102198.66;;;-1.14;100.00
58769;BME280;44536;47.474;19.056;2023-02-15T04:32:48;102199.53;;;-1.12;100.00
58769;BME280;44536;47.474;19.056;2023-02-15T04:35:50;102201.28;;;-1.06;100.00
58769;BME280;44536;47.474;19.056;2023-02-15T04:38:52;102206.47;;;-1.00;100.00
58769;BME280;44536;47.474;19.056;2023-02-15T04:41:55;102200.38;;;-0.97;100.00
58769;BME280;44536;47.474;19.056;2023-02-15T04:44:57;102198.66;;;-0.98;100.00
58769;BME280;44536;47.474;19.056;2023-02-15T04:48:00;102209.94;;;-0.95;100.00
58769;BME280;44536;47.474;19.056;2023-02-15T04:51:06;102209.94;;;-0.93;100.00
58769;BME280;44536;47.474;19.056;2023-02-15T04:54:09;102208.22;;;-0.93;100.00
58769;BME280;44536;47.474;19.056;2023-02-15T04:57:12;102211.69;;;-0.95;100.00
58769;BME280;44536;47.474;19.056;2023-02-15T05:00:15;102207.34;;;-0.90;100.00
58769;BME280;44536;47.474;19.056;2023-02-15T05:03:18;102207.34;;;-0.95;100.00
58769;BME280;44536;47.474;19.056;2023-02-15T05:06:21;102203.88;;;-1.08;100.00
58769;BME280;44536;47.474;19.056;2023-02-15T05:09:23;102212.56;;;-1.09;100.00
58769;BME280;44536;47.474;19.056;2023-02-15T05:12:25;102208.22;;;-0.94;100.00
58769;BME280;44536;47.474;19.056;2023-02-15T05:15:29;102209.09;;;-1.11;100.00
58769;BME280;44536;47.474;19.056;2023-02-15T05:18:31;102218.62;;;-1.16;100.00
58769;BME280;44536;47.474;19.056;2023-02-15T05:21:34;102216.84;;;-1.24;100.00
58769;BME280;44536;47.474;19.056;2023-02-15T05:24:37;102216.84;;;-1.30;100.00
58769;BME280;44536;47.474;19.056;2023-02-15T05:27:58;102219.41;;;-1.40;100.00
58769;BME280;44536;47.474;19.056;2023-02-15T05:31:19;102235.88;;;-1.48;100.00
58769;BME280;44536;47.474;19.056;2023-02-15T05:34:22;102236.75;;;-1.43;100.00
58769;BME280;44536;47.474;19.056;2023-02-15T05:37:25;102242.78;;;-1.50;100.00
58769;BME280;44536;47.474;19.056;2023-02-15T05:40:27;102235.84;;;-1.50;100.00
58769;BME280;44536;47.474;19.056;2023-02-15T05:43:30;102241.06;;;-1.47;100.00
58769;BME280;44536;47.474;19.056;2023-02-15T05:46:32;102246.28;;;-1.47;100.00
58769;BME280;44536;47.474;19.056;2023-02-15T05:49:35;102242.78;;;-1.53;100.00
58769;BME280;44536;47.474;19.056;2023-02-15T05:52:37;102250.59;;;-1.50;100.00
58769;BME280;44536;47.474;19.056;2023-02-15T05:55:40;102244.53;;;-1.51;100.00
58769;BME280;44536;47.474;19.056;2023-02-15T05:58:43;102248.88;;;-1.50;100.00
58769;BME280;44536;47.474;19.056;2023-02-15T06:01:45;102252.34;;;-1.51;100.00
58769;BME280;44536;47.474;19.056;2023-02-15T06:04:48;102249.72;;;-1.52;100.00
58769;BME280;44536;47.474;19.056;2023-02-15T06:07:50;102257.56;;;-1.46;100.00
58769;BME280;44536;47.474;19.056;2023-02-15T06:10:55;102251.50;;;-1.44;100.00
58769;BME280;44536;47.474;19.056;2023-02-15T06:13:57;102252.38;;;-1.39;100.00
58769;BME280;44536;47.474;19.056;2023-02-15T06:17:01;102255.91;;;-1.26;100.00
58769;BME280;44536;47.474;19.056;2023-02-15T06:20:03;102256.75;;;-1.27;100.00
58769;BME280;44536;47.474;19.056;2023-02-15T06:23:06;102268.97;;;-1.08;100.00
58769;BME280;44536;47.474;19.056;2023-02-15T06:26:08;102249.88;;;-0.91;100.00
58769;BME280;44536;47.474;19.056;2023-02-15T06:29:11;102255.09;;;-0.81;100.00
58769;BME280;44536;47.474;19.056;2023-02-15T06:32:13;102247.25;;;-0.12;100.00
58769;BME280;44536;47.474;19.056;2023-02-15T06:35:16;102252.94;;;0.87;100.00
58769;BME280;44536;47.474;19.056;2023-02-15T06:38:19;102250.25;;;0.99;100.00
58769;BME280;44536;47.474;19.056;2023-02-15T06:41:22;102258.75;;;1.26;98.26
58769;BME280;44536;47.474;19.056;2023-02-15T06:44:26;102261.44;;;1.14;98.05
58769;BME280;44536;47.474;19.056;2023-02-15T06:47:28;102271.06;;;1.06;99.14
58769;BME280;44536;47.474;19.056;2023-02-15T06:50:30;102262.97;;;1.45;97.03
58769;BME280;44536;47.474;19.056;2023-02-15T06:53:33;102268.25;;;1.36;95.97
58769;BME280;44536;47.474;19.056;2023-02-15T06:56:35;102262.91;;;1.53;95.90
58769;BME280;44536;47.474;19.056;2023-02-15T06:59:38;102266.53;;;1.35;96.30
58769;BME280;44536;47.474;19.056;2023-02-15T07:02:40;102270.03;;;1.31;96.58
58769;BME280;44536;47.474;19.056;2023-02-15T07:05:43;102269.94;;;1.43;96.32
58769;BME280;44536;47.474;19.056;2023-02-15T07:08:47;102270.78;;;1.48;95.75
58769;BME280;44536;47.474;19.056;2023-02-15T07:11:51;102271.66;;;1.47;95.50
58769;BME280;44536;47.474;19.056;2023-02-15T07:15:17;102266.44;;;1.47;95.81
58769;BME280;44536;47.474;19.056;2023-02-15T07:18:20;102271.66;;;1.47;96.34
58769;BME280;44536;47.474;19.056;2023-02-15T07:21:23;102274.16;;;1.56;95.44
58769;BME280;44536;47.474;19.056;2023-02-15T07:24:26;102264.53;;;1.61;94.88
58769;BME280;44536;47.474;19.056;2023-02-15T07:27:30;102266.38;;;1.55;94.36
58769;BME280;44536;47.474;19.056;2023-02-15T07:30:33;102268.84;;;1.69;95.26
58769;BME280;44536;47.474;19.056;2023-02-15T07:33:36;102262.66;;;1.79;93.99
58769;BME280;44536;47.474;19.056;2023-02-15T07:36:38;102262.50;;;1.94;93.85
58769;BME280;44536;47.474;19.056;2023-02-15T07:39:41;102260.00;;;1.83;93.14
58769;BME280;44536;47.474;19.056;2023-02-15T07:42:43;102258.22;;;1.87;93.71
58769;BME280;44536;47.474;19.056;2023-02-15T07:45:46;102257.03;;;2.14;92.68
58769;BME280;44536;47.474;19.056;2023-02-15T07:48:48;102256.06;;;2.24;90.91
58769;BME280;44536;47.474;19.056;2023-02-15T07:51:50;102254.28;;;2.27;92.41
58769;BME280;44536;47.474;19.056;2023-02-15T07:54:53;102256.66;;;2.49;91.42
58769;BME280;44536;47.474;19.056;2023-02-15T07:57:56;102255.66;;;2.59;91.09
58769;BME280;44536;47.474;19.056;2023-02-15T08:00:59;102258.34;;;2.53;89.93
58769;BME280;44536;47.474;19.056;2023-02-15T08:04:05;102253.78;;;2.65;90.12
58769;BME280;44536;47.474;19.056;2023-02-15T08:07:08;102251.09;;;2.70;89.12
58769;BME280;44536;47.474;19.056;2023-02-15T08:10:10;102245.81;;;2.75;89.51
58769;BME280;44536;47.474;19.056;2023-02-15T08:13:33;102248.97;;;2.98;87.75
58769;BME280;44536;47.474;19.056;2023-02-15T08:19:41;102234.94;;;3.02;87.56
58769;BME280;44536;47.474;19.056;2023-02-15T08:22:43;102232.97;;;3.16;87.10
58769;BME280;44536;47.474;19.056;2023-02-15T08:25:46;102232.72;;;3.31;86.75
58769;BME280;44536;47.474;19.056;2023-02-15T08:28:48;102237.63;;;3.53;85.51
58769;BME280;44536;47.474;19.056;2023-02-15T08:31:52;102242.75;;;3.60;83.92
58769;BME280;44536;47.474;19.056;2023-02-15T08:34:56;102233.81;;;3.69;84.31
58769;BME280;44536;47.474;19.056;2023-02-15T08:37:58;102231.81;;;3.83;84.00
58769;BME280;44536;47.474;19.056;2023-02-15T08:41:11;102223.91;;;3.85;83.28
58769;BME280;44536;47.474;19.056;2023-02-15T08:44:16;102227.31;;;3.90;83.26
58769;BME280;44536;47.474;19.056;2023-02-15T08:47:19;102229.78;;;3.99;82.53
58769;BME280;44536;47.474;19.056;2023-02-15T08:50:21;102228.62;;;4.14;82.03
58769;BME280;44536;47.474;19.056;2023-02-15T08:53:24;102224.28;;;4.11;81.87
58769;BME280;44536;47.474;19.056;2023-02-15T08:56:28;102226.78;;;4.17;81.47
58769;BME280;44536;47.474;19.056;2023-02-15T08:59:32;102236.34;;;4.20;81.28
58769;BME280;44536;47.474;19.056;2023-02-15T09:02:34;102229.09;;;4.32;81.42
58769;BME280;44536;47.474;19.056;2023-02-15T09:05:37;102219.16;;;4.47;80.13
58769;BME280;44536;47.474;19.056;2023-02-15T09:08:39;102223.53;;;4.48;80.36
58769;BME280;44536;47.474;19.056;2023-02-15T09:11:44;102221.91;;;4.42;80.22
58769;BME280;44536;47.474;19.056;2023-02-15T09:14:46;102225.53;;;4.35;80.63
58769;BME280;44536;47.474;19.056;2023-02-15T09:17:49;102218.25;;;4.49;80.69
58769;BME280;44536;47.474;19.056;2023-02-15T09:20:51;102218.03;;;4.60;79.98
58769;BME280;44536;47.474;19.056;2023-02-15T09:23:59;102212.53;;;4.69;80.38
58769;BME280;44536;47.474;19.056;2023-02-15T09:27:02;102218.97;;;4.94;78.17
58769;BME280;44536;47.474;19.056;2023-02-15T09:30:05;102216.81;;;5.12;77.49
58769;BME280;44536;47.474;19.056;2023-02-15T09:33:08;102215.53;;;5.28;77.01
58769;BME280;44536;47.474;19.056;2023-02-15T09:36:31;102215.44;;;5.31;76.36
58769;BME280;44536;47.474;19.056;2023-02-15T09:39:37;102220.25;;;5.49;76.68
58769;BME280;44536;47.474;19.056;2023-02-15T09:50:04;102206.09;;;5.87;74.39
58769;BME280;44536;47.474;19.056;2023-02-15T09:53:29;102200.78;;;6.79;70.19
58769;BME280;44536;47.474;19.056;2023-02-15T09:56:44;102193.69;;;7.35;68.20
58769;BME280;44536;47.474;19.056;2023-02-15T09:59:56;102197.16;;;7.87;65.42
58769;BME280;44536;47.474;19.056;2023-02-15T10:03:27;102188.72;;;8.49;62.12
58769;BME280;44536;47.474;19.056;2023-02-15T10:26:56;102169.91;;;13.27;46.05
58769;BME280;44536;47.474;19.056;2023-02-15T10:30:13;102167.81;;;12.86;46.41
58769;BME280;44536;47.474;19.056;2023-02-15T10:36:57;102160.62;;;12.08;47.33
58769;BME280;44536;47.474;19.056;2023-02-15T10:40:08;102172.87;;;11.95;48.45
58769;BME280;44536;47.474;19.056;2023-02-15T10:43:27;102172.63;;;12.32;47.98
58769;BME280;44536;47.474;19.056;2023-02-15T10:53:30;102162.16;;;12.76;45.52
58769;BME280;44536;47.474;19.056;2023-02-15T10:59:57;102154.38;;;12.09;47.02
58769;BME280;44536;47.474;19.056;2023-02-15T11:06:48;102141.78;;;11.62;48.23
58769;BME280;44536;47.474;19.056;2023-02-15T11:10:05;102139.28;;;11.59;48.84
58769;BME280;44536;47.474;19.056;2023-02-15T11:13:18;102134.19;;;11.54;48.23
58769;BME280;44536;47.474;19.056;2023-02-15T11:16:24;102131.87;;;11.48;48.47
58769;BME280;44536;47.474;19.056;2023-02-15T11:19:37;102130.50;;;11.41;49.23
58769;BME280;44536;47.474;19.056;2023-02-15T11:22:48;102121.19;;;13.09;45.01
58769;BME280;44536;47.474;19.056;2023-02-15T11:25:59;102117.75;;;14.09;42.64
58769;BME280;44536;47.474;19.056;2023-02-15T11:29:33;102110.19;;;14.71;41.20
58769;BME280;44536;47.474;19.056;2023-02-15T11:32:40;102112.53;;;15.55;38.79
58769;BME280;44536;47.474;19.056;2023-02-15T11:35:50;102104.44;;;15.57;38.85
58769;BME280;44536;47.474;19.056;2023-02-15T11:39:07;102096.69;;;16.76;36.38
58769;BME280;44536;47.474;19.056;2023-02-15T11:42:14;102092.81;;;16.56;36.44
58769;BME280;44536;47.474;19.056;2023-02-15T11:45:30;102088.38;;;16.92;35.90
58769;BME280;44536;47.474;19.056;2023-02-15T11:48:33;102079.56;;;17.13;35.34
58769;BME280;44536;47.474;19.056;2023-02-15T11:51:36;102086.31;;;17.41;34.75
58769;BME280;44536;47.474;19.056;2023-02-15T11:54:45;102077.78;;;15.68;37.62
58769;BME280;44536;47.474;19.056;2023-02-15T11:57:56;102077.34;;;16.60;36.19
58769;BME280;44536;47.474;19.056;2023-02-15T12:01:27;102068.72;;;17.26;34.50
58769;BME280;44536;47.474;19.056;2023-02-15T12:04:36;102070.25;;;17.52;34.12
58769;BME280;44536;47.474;19.056;2023-02-15T12:08:15;102070.19;;;16.84;35.32
58769;BME280;44536;47.474;19.056;2023-02-15T12:11:25;102066.66;;;15.61;36.76
58769;BME280;44536;47.474;19.056;2023-02-15T12:14:46;102057.97;;;15.07;38.77
58769;BME280;44536;47.474;19.056;2023-02-15T12:17:53;102058.00;;;17.15;34.78
58769;BME280;44536;47.474;19.056;2023-02-15T12:21:01;102055.03;;;14.84;38.50
58769;BME280;44536;47.474;19.056;2023-02-15T12:24:47;102054.09;;;13.18;41.71
58769;BME280;44536;47.474;19.056;2023-02-15T12:27:52;102042.53;;;13.90;41.11
58769;BME280;44536;47.474;19.056;2023-02-15T12:30:57;102040.19;;;16.31;36.89
58769;BME280;44536;47.474;19.056;2023-02-15T12:34:03;102043.84;;;16.78;35.66
58769;BME280;44536;47.474;19.056;2023-02-15T12:37:23;102038.81;;;15.89;37.29
58769;BME280;44536;47.474;19.056;2023-02-15T12:40:30;102033.78;;;14.56;39.87
58769;BME280;44536;47.474;19.056;2023-02-15T12:43:36;102031.22;;;14.13;40.71
58769;BME280;44536;47.474;19.056;2023-02-15T12:46:39;102030.81;;;14.61;39.94
58769;BME280;44536;47.474;19.056;2023-02-15T12:50:14;102017.59;;;14.72;39.64
58769;BME280;44536;47.474;19.056;2023-02-15T12:53:31;102013.09;;;14.18;41.67
58769;BME280;44536;47.474;19.056;2023-02-15T12:56:36;102013.37;;;14.01;40.62
58769;BME280;44536;47.474;19.056;2023-02-15T12:59:48;102002.19;;;13.39;42.04
58769;BME280;44536;47.474;19.056;2023-02-15T13:02:55;102001.31;;;14.08;41.09
58769;BME280;44536;47.474;19.056;2023-02-15T13:05:59;102000.13;;;12.70;43.29
58769;BME280;44536;47.474;19.056;2023-02-15T13:09:20;102002.22;;;11.39;46.38
58769;BME280;44536;47.474;19.056;2023-02-15T13:12:30;101989.16;;;11.02;47.73
58769;BME280;44536;47.474;19.056;2023-02-15T13:15:36;101995.06;;;11.73;46.50
58769;BME280;44536;47.474;19.056;2023-02-15T13:18:45;101993.41;;;11.39;46.40
58769;BME280;44536;47.474;19.056;2023-02-15T13:21:49;101987.91;;;11.09;47.33
58769;BME280;44536;47.474;19.056;2023-02-15T13:25:03;101986.13;;;11.42;47.64
58769;BME280;44536;47.474;19.056;2023-02-15T13:28:12;101984.34;;;12.37;45.41
58769;BME280;44536;47.474;19.056;2023-02-15T13:31:23;101977.00;;;13.15;42.98
58769;BME280;44536;47.474;19.056;2023-02-15T13:34:35;101974.84;;;12.63;44.21
58769;BME280;44536;47.474;19.056;2023-02-15T13:41:01;101970.00;;;13.71;42.04
58769;BME280;44536;47.474;19.056;2023-02-15T13:51:07;101959.50;;;12.82;43.85
58769;BME280;44536;47.474;19.056;2023-02-15T14:01:10;101956.81;;;12.82;43.84
58769;BME280;44536;47.474;19.056;2023-02-15T14:07:56;101957.09;;;13.22;44.26
58769;BME280;44536;47.474;19.056;2023-02-15T14:11:12;101954.94;;;13.13;43.49
58769;BME280;44536;47.474;19.056;2023-02-15T14:14:35;101959.34;;;12.70;43.98
58769;BME280;44536;47.474;19.056;2023-02-15T14:17:55;101965.00;;;12.04;45.51
58769;BME280;44536;47.474;19.056;2023-02-15T14:21:19;101952.34;;;11.44;47.49
58769;BME280;44536;47.474;19.056;2023-02-15T14:25:15;101957.28;;;11.99;46.46
58769;BME280;44536;47.474;19.056;2023-02-15T14:31:04;101963.81;;;10.79;49.03
58769;BME280;44536;47.474;19.056;2023-02-15T14:34:20;101958.56;;;10.25;50.50
58769;BME280;44536;47.474;19.056;2023-02-15T14:40:58;101969.16;;;10.07;52.46
58769;BME280;44536;47.474;19.056;2023-02-15T14:50:41;101968.91;;;9.38;54.84
58769;BME280;44536;47.474;19.056;2023-02-15T14:53:46;101963.34;;;9.05;56.76
58769;BME280;44536;47.474;19.056;2023-02-15T15:00:28;101950.12;;;8.84;57.17
58769;BME280;44536;47.474;19.056;2023-02-15T15:03:28;101950.28;;;8.61;58.09
58769;BME280;44536;47.474;19.056;2023-02-15T15:06:35;101957.78;;;8.50;58.34
58769;BME280;44536;47.474;19.056;2023-02-15T15:09:40;101946.69;;;8.42;58.83
58769;BME280;44536;47.474;19.056;2023-02-15T15:26:28;101944.59;;;7.84;62.59
58769;BME280;44536;47.474;19.056;2023-02-15T15:29:39;101943.25;;;7.74;63.05
58769;BME280;44536;47.474;19.056;2023-02-15T15:46:41;101937.03;;;6.82;67.22
58769;BME280;44536;47.474;19.056;2023-02-15T15:49:48;101935.06;;;6.63;68.43
58769;BME280;44536;47.474;19.056;2023-02-15T15:52:53;101942.28;;;6.58;69.01
58769;BME280;44536;47.474;19.056;2023-02-15T15:56:05;101938.94;;;6.53;69.49
58769;BME280;44536;47.474;19.056;2023-02-15T15:59:19;101932.59;;;6.32;70.40
58769;BME280;44536;47.474;19.056;2023-02-15T16:02:23;101933.19;;;6.16;72.38
58769;BME280;44536;47.474;19.056;2023-02-15T16:05:35;101922.22;;;6.02;72.11
58769;BME280;44536;47.474;19.056;2023-02-15T16:08:38;101930.47;;;5.91;73.10
58769;BME280;44536;47.474;19.056;2023-02-15T16:11:42;101928.84;;;5.85;73.54
58769;BME280;44536;47.474;19.056;2023-02-15T16:14:46;101924.19;;;5.67;74.26
58769;BME280;44536;47.474;19.056;2023-02-15T16:17:56;101922.50;;;5.64;75.03
58769;BME280;44536;47.474;19.056;2023-02-15T16:21:00;101923.69;;;5.54;75.24
58769;BME280;44536;47.474;19.056;2023-02-15T16:27:36;101930.53;;;5.30;76.66
58769;BME280;44536;47.474;19.056;2023-02-15T16:30:40;101937.06;;;5.17;76.93
58769;BME280;44536;47.474;19.056;2023-02-15T16:33:45;101937.03;;;5.19;77.95
58769;BME280;44536;47.474;19.056;2023-02-15T16:36:48;101935.44;;;5.13;78.09
58769;BME280;44536;47.474;19.056;2023-02-15T16:39:50;101940.81;;;5.09;78.42
58769;BME280;44536;47.474;19.056;2023-02-15T16:43:01;101942.28;;;5.19;77.86
58769;BME280;44536;47.474;19.056;2023-02-15T16:46:08;101936.47;;;5.08;78.19
58769;BME280;44536;47.474;19.056;2023-02-15T16:49:19;101944.81;;;4.91;78.89
58769;BME280;44536;47.474;19.056;2023-02-15T16:52:24;101937.22;;;4.80;79.77
58769;BME280;44536;47.474;19.056;2023-02-15T16:55:29;101934.50;;;4.83;79.82
58769;BME280;44536;47.474;19.056;2023-02-15T16:58:41;101944.16;;;4.83;79.72
58769;BME280;44536;47.474;19.056;2023-02-15T17:01:45;101946.00;;;4.79;80.11
58769;BME280;44536;47.474;19.056;2023-02-15T17:11:36;101944.44;;;4.40;82.34
58769;BME280;44536;47.474;19.056;2023-02-15T17:14:39;101947.94;;;4.39;83.12
58769;BME280;44536;47.474;19.056;2023-02-15T17:17:42;101950.88;;;4.26;83.31
58769;BME280;44536;47.474;19.056;2023-02-15T17:20:46;101953.31;;;4.34;83.58
58769;BME280;44536;47.474;19.056;2023-02-15T17:23:50;101948.37;;;4.22;83.90
58769;BME280;44536;47.474;19.056;2023-02-15T17:26:55;101950.56;;;4.05;84.36
58769;BME280;44536;47.474;19.056;2023-02-15T17:30:23;101942.88;;;3.97;85.54
58769;BME280;44536;47.474;19.056;2023-02-15T17:36:58;101949.25;;;3.85;86.33
58769;BME280;44536;47.474;19.056;2023-02-15T17:40:14;101948.59;;;3.76;86.35
58769;BME280;44536;47.474;19.056;2023-02-15T17:43:21;101946.94;;;3.72;87.46
58769;BME280;44536;47.474;19.056;2023-02-15T17:46:24;101948.91;;;3.63;87.63
58769;BME280;44536;47.474;19.056;2023-02-15T17:49:27;101945.53;;;3.57;88.20
58769;BME280;44536;47.474;19.056;2023-02-15T17:52:36;101950.06;;;3.50;87.76
58769;BME280;44536;47.474;19.056;2023-02-15T17:55:38;101942.34;;;3.43;89.20
58769;BME280;44536;47.474;19.056;2023-02-15T17:58:41;101943.38;;;3.36;90.20
58769;BME280;44536;47.474;19.056;2023-02-15T18:01:46;101946.19;;;3.26;90.21
58769;BME280;44536;47.474;19.056;2023-02-15T18:05:14;101941.06;;;3.20;91.61
58769;BME280;44536;47.474;19.056;2023-02-15T18:08:35;101944.50;;;3.22;91.04
58769;BME280;44536;47.474;19.056;2023-02-15T18:11:57;101944.75;;;3.12;91.97
58769;BME280;44536;47.474;19.056;2023-02-15T18:14:59;101935.37;;;3.00;92.40
58769;BME280;44536;47.474;19.056;2023-02-15T18:18:03;101936.38;;;2.93;92.28
58769;BME280;44536;47.474;19.056;2023-02-15T18:21:05;101942.56;;;2.89;93.09
58769;BME280;44536;47.474;19.056;2023-02-15T18:24:22;101935.69;;;2.83;94.61
58769;BME280;44536;47.474;19.056;2023-02-15T18:27:27;101929.69;;;2.77;94.33
58769;BME280;44536;47.474;19.056;2023-02-15T18:30:30;101936.84;;;2.67;96.24
58769;BME280;44536;47.474;19.056;2023-02-15T18:33:35;101931.63;;;2.67;96.75
58769;BME280;44536;47.474;19.056;2023-02-15T18:36:43;101938.84;;;2.56;96.60